Dades meteomassalio
Diari Summary for Marc 09, 2018 Units:  English    Metric   Both
« Previous Day
Next Day »
Diari Semanal Mensual Anual Personalitzat
  Maxima: Minima: Mijana:
Temperatura: TemperatureC °F 3.3 °F 12.4 °F
Rosada: DewpointC °F 2.0 °F 7.4 °F
Humitat: Humidity % 49 % 74 %
Velocitat del vent: WindSpeedKMH mph 0.0 mph 3.5 mph
Racha vent: WindSpeedGustKMH mph - -
Vent:- - SE
Pressio: PressurehPa in 1010.0 in -
Pluja: 0.3 in    
Historical Graphs
 
 
Tabular Data for Marc 09, 2018
Time Temperature Dew Point Pressure Wind Wind Speed Wind Gust Humidity Rainfall Rate (Hourly) solar Conditions
TemperatureC °F DewpointC °F PressurehPa in Calm     Humidity % HourlyPrecipMM in SolarRadiationWatts/m^2 W/m2 Conditions
00:04 5.0 °F 3.3 °F 1015.5 in Calm     89 % 0.0 in 0.0 W/m2 CLR
00:09 5.0 °F 3.3 °F 1015.5 in Calm     89 % 0.0 in 0.0 W/m2 CLR
00:14 5.0 °F 3.2 °F 1015.5 in Calm     88 % 0.0 in 0.0 W/m2 CLR
00:19 5.0 °F 3.3 °F 1015.5 in Calm     89 % 0.0 in 0.0 W/m2 CLR
00:24 5.0 °F 3.3 °F 1015.5 in Calm     89 % 0.0 in 0.0 W/m2 CLR
00:29 5.0 °F 3.3 °F 1015.5 in Calm     89 % 0.0 in 0.0 W/m2 CLR
00:34 5.6 °F 3.9 °F 1015.1 in Calm     89 % 0.0 in 0.0 W/m2 CLR
00:39 5.6 °F 3.9 °F 1015.5 in Calm     89 % 0.0 in 0.0 W/m2 CLR
00:44 5.6 °F 3.9 °F 1015.5 in Calm     89 % 0.0 in 0.0 W/m2 CLR
00:49 5.6 °F 3.9 °F 1015.5 in Calm     89 % 0.0 in 0.0 W/m2 CLR
00:54 5.6 °F 3.9 °F 1015.5 in Calm     89 % 0.0 in 0.0 W/m2 CLR
00:59 5.6 °F 3.7 °F 1015.5 in Calm     88 % 0.0 in 0.0 W/m2 CLR
01:04 5.0 °F 3.2 °F 1015.5 in Calm     88 % 0.0 in 0.0 W/m2 CLR
01:09 5.0 °F 3.2 °F 1015.5 in Calm     88 % 0.0 in 0.0 W/m2 CLR
01:14 5.0 °F 3.3 °F 1015.1 in Calm     89 % 0.0 in 0.0 W/m2 CLR
01:19 5.0 °F 3.3 °F 1015.5 in Calm     89 % 0.0 in 0.0 W/m2 CLR
01:24 5.0 °F 3.3 °F 1015.5 in Calm     89 % 0.0 in 0.0 W/m2 CLR
01:29 5.6 °F 3.9 °F 1015.5 in Calm     89 % 0.0 in 0.0 W/m2 CLR
01:34 5.6 °F 3.9 °F 1015.1 in Calm     89 % 0.0 in 0.0 W/m2 CLR
01:39 5.6 °F 3.9 °F 1015.5 in Calm     89 % 0.0 in 0.0 W/m2 CLR
01:44 5.6 °F 3.9 °F 1015.5 in Calm     89 % 0.0 in 0.0 W/m2 CLR
01:49 5.6 °F 3.9 °F 1015.5 in Calm     89 % 0.0 in 0.0 W/m2 CLR
01:54 6.1 °F 4.4 °F 1015.5 in Calm     89 % 0.0 in 0.0 W/m2 CLR
01:59 6.1 °F 4.4 °F 1015.5 in Calm     89 % 0.0 in 0.0 W/m2 CLR
02:04 6.1 °F 4.4 °F 1015.5 in Calm     89 % 0.0 in 0.0 W/m2 CLR
02:09 6.1 °F 4.4 °F 1015.5 in Calm     89 % 0.0 in 0.0 W/m2 CLR
02:14 6.1 °F 4.4 °F 1015.5 in Calm     89 % 0.0 in 0.0 W/m2 CLR
02:19 6.1 °F 4.4 °F 1015.1 in Calm     89 % 0.0 in 0.0 W/m2 CLR
02:24 6.1 °F 4.4 °F 1015.1 in Calm     89 % 0.0 in 0.0 W/m2 CLR
02:29 6.1 °F 4.4 °F 1015.1 in Calm     89 % 0.0 in 0.0 W/m2 CLR
02:34 6.1 °F 4.4 °F 1015.1 in Calm     89 % 0.0 in 0.0 W/m2 CLR
02:39 6.1 °F 4.4 °F 1015.1 in Calm     89 % 0.0 in 0.0 W/m2 CLR
02:44 6.1 °F 4.4 °F 1015.1 in Calm     89 % 0.0 in 0.0 W/m2 CLR
02:49 6.1 °F 4.4 °F 1015.1 in Calm     89 % 0.0 in 0.0 W/m2 CLR
02:54 6.1 °F 4.4 °F 1015.1 in Calm     89 % 0.0 in 0.0 W/m2 CLR
02:59 6.1 °F 4.4 °F 1015.1 in Calm     89 % 0.0 in 0.0 W/m2 CLR
03:04 6.1 °F 4.4 °F 1015.1 in Calm     89 % 0.0 in 0.0 W/m2 CLR
03:09 6.1 °F 4.4 °F 1015.1 in Calm     89 % 0.0 in 0.0 W/m2 CLR
03:14 6.1 °F 4.3 °F 1015.1 in Calm     88 % 0.0 in 0.0 W/m2 CLR
03:19 6.1 °F 4.3 °F 1015.1 in Calm     88 % 0.0 in 0.0 W/m2 CLR
03:24 6.1 °F 4.4 °F 1014.8 in Calm     89 % 0.0 in 0.0 W/m2 CLR
03:29 6.1 °F 4.4 °F 1015.1 in Calm     89 % 0.0 in 0.0 W/m2 CLR
03:35 6.1 °F 4.4 °F 1014.8 in Calm     89 % 0.0 in 0.0 W/m2 CLR
03:40 6.1 °F 4.4 °F 1014.8 in Calm     89 % 0.0 in 0.0 W/m2 CLR
03:45 6.1 °F 4.4 °F 1014.8 in Calm     89 % 0.0 in 0.0 W/m2 CLR
03:50 6.1 °F 4.4 °F 1014.8 in Calm     89 % 0.0 in 0.0 W/m2 CLR
03:55 6.1 °F 4.4 °F 1015.1 in Calm     89 % 0.0 in 0.0 W/m2 CLR
04:00 6.1 °F 4.4 °F 1015.1 in Calm     89 % 0.0 in 0.0 W/m2 CLR
04:05 6.1 °F 4.4 °F 1015.1 in Calm     89 % 0.0 in 0.0 W/m2 CLR
04:10 6.1 °F 4.3 °F 1015.1 in Calm     88 % 0.0 in 0.0 W/m2 CLR
04:15 5.6 °F 3.7 °F 1015.1 in Calm     88 % 0.0 in 0.0 W/m2 CLR
04:20 5.6 °F 3.7 °F 1015.1 in Calm     88 % 0.0 in 0.0 W/m2 CLR
04:25 5.6 °F 3.9 °F 1015.1 in Calm     89 % 0.0 in 0.0 W/m2 CLR
04:30 5.0 °F 3.3 °F 1015.1 in Calm     89 % 0.0 in 0.0 W/m2 CLR
04:35 5.0 °F 3.3 °F 1015.1 in Calm     89 % 0.0 in 0.0 W/m2 CLR
04:40 5.0 °F 3.5 °F 1015.1 in Calm     90 % 0.0 in 0.0 W/m2 CLR
04:45 5.0 °F 3.5 °F 1015.1 in Calm     90 % 0.0 in 0.0 W/m2 CLR
04:50 5.0 °F 3.5 °F 1015.1 in Calm     90 % 0.0 in 0.0 W/m2 CLR
04:55 5.0 °F 3.5 °F 1015.1 in Calm     90 % 0.0 in 0.0 W/m2 CLR
05:00 5.0 °F 3.5 °F 1015.1 in Calm     90 % 0.0 in 0.0 W/m2 CLR
05:05 5.0 °F 3.5 °F 1015.1 in Calm     90 % 0.0 in 0.0 W/m2 CLR
05:10 5.0 °F 3.5 °F 1015.1 in Calm     90 % 0.0 in 0.0 W/m2 CLR
05:15 5.0 °F 3.3 °F 1015.1 in Calm     89 % 0.0 in 0.0 W/m2 CLR
05:20 5.0 °F 3.5 °F 1015.1 in Calm     90 % 0.0 in 0.0 W/m2 CLR
05:25 5.0 °F 3.5 °F 1015.5 in Calm     90 % 0.0 in 0.0 W/m2 CLR
05:30 5.0 °F 3.5 °F 1015.5 in Calm     90 % 0.0 in 0.0 W/m2 CLR
05:35 4.4 °F 2.8 °F 1015.5 in Calm     89 % 0.0 in 0.0 W/m2 CLR
05:40 5.0 °F 3.5 °F 1015.5 in Calm     90 % 0.0 in 0.0 W/m2 CLR
05:45 4.4 °F 2.9 °F 1015.5 in Calm     90 % 0.0 in 0.0 W/m2 CLR
05:50 4.4 °F 2.9 °F 1015.5 in Calm     90 % 0.0 in 0.0 W/m2 CLR
05:55 4.4 °F 2.9 °F 1015.5 in Calm     90 % 0.0 in 0.0 W/m2 CLR
06:00 4.4 °F 2.9 °F 1015.5 in Calm     90 % 0.0 in 0.0 W/m2 CLR
06:05 4.4 °F 3.1 °F 1015.5 in Calm     91 % 0.0 in 0.0 W/m2 CLR
06:10 4.4 °F 3.1 °F 1015.5 in Calm     91 % 0.0 in 0.0 W/m2 CLR
06:15 3.9 °F 2.6 °F 1015.5 in Calm     91 % 0.0 in 0.0 W/m2 CLR
06:20 3.9 °F 2.6 °F 1015.5 in Calm     91 % 0.0 in 0.0 W/m2 CLR
06:25 3.9 °F 2.6 °F 1015.5 in Calm     91 % 0.0 in 0.0 W/m2 CLR
06:30 3.9 °F 2.6 °F 1015.5 in Calm     91 % 0.0 in 0.0 W/m2 CLR
06:35 3.9 °F 2.6 °F 1015.5 in Calm     91 % 0.0 in 0.0 W/m2 CLR
06:40 3.9 °F 2.4 °F 1015.5 in Calm     90 % 0.0 in 0.0 W/m2 CLR
06:45 3.9 °F 2.4 °F 1015.1 in Calm     90 % 0.0 in 0.0 W/m2 CLR
06:50 3.9 °F 2.4 °F 1015.1 in Calm     90 % 0.0 in 0.0 W/m2 CLR
06:55 3.9 °F 2.6 °F 1015.1 in Calm     91 % 0.0 in 0.0 W/m2 CLR
07:00 3.9 °F 2.6 °F 1015.1 in Calm     91 % 0.0 in 0.0 W/m2 CLR
07:05 3.9 °F 2.6 °F 1015.1 in Calm     91 % 0.0 in 0.0 W/m2 CLR
07:10 3.3 °F 2.0 °F 1015.1 in Calm     91 % 0.0 in 0.0 W/m2 CLR
07:15 3.3 °F 2.0 °F 1015.1 in Calm     91 % 0.0 in 0.0 W/m2 OVC
07:20 3.3 °F 2.0 °F 1015.1 in Calm     91 % 0.0 in 5.0 W/m2 OVC
07:25 3.9 °F 2.6 °F 1015.1 in Calm     91 % 0.0 in 5.0 W/m2 OVC
07:30 3.9 °F 2.6 °F 1015.1 in Calm     91 % 0.0 in 9.0 W/m2 BKN
07:35 3.3 °F 2.0 °F 1015.5 in Calm     91 % 0.0 in 11.0 W/m2 BKN
07:40 3.9 °F 2.6 °F 1015.5 in Calm     91 % 0.0 in 12.0 W/m2 BKN
07:45 3.9 °F 2.7 °F 1015.5 in Calm     92 % 0.0 in 14.0 W/m2 BKN
07:50 3.9 °F 2.6 °F 1015.5 in Calm     91 % 0.0 in 21.0 W/m2 BKN
07:55 3.9 °F 2.7 °F 1015.5 in Calm     92 % 0.0 in 32.0 W/m2 BKN
08:00 3.9 °F 2.6 °F 1015.5 in Calm     91 % 0.0 in 49.0 W/m2 SCT
08:05 3.9 °F 2.6 °F 1015.5 in Calm     91 % 0.0 in 49.0 W/m2 SCT
08:10 4.4 °F 3.3 °F 1015.5 in Calm     92 % 0.0 in 67.0 W/m2 SCT
08:15 4.4 °F 3.3 °F 1015.5 in Calm     92 % 0.0 in 70.0 W/m2 SCT
08:20 5.0 °F 3.8 °F 1015.5 in Calm     92 % 0.0 in 105.0 W/m2 CLR
08:25 5.0 °F 3.7 °F 1015.5 in Calm     91 % 0.0 in 116.0 W/m2 CLR
08:30 5.0 °F 3.7 °F 1015.5 in Calm     91 % 0.0 in 141.0 W/m2 CLR
08:35 5.6 °F 4.2 °F 1015.1 in Calm     91 % 0.0 in 98.0 W/m2 CLR
08:40 5.6 °F 4.1 °F 1015.5 in Calm     90 % 0.0 in 178.0 W/m2 CLR
08:45 6.1 °F 4.6 °F 1015.5 in Calm     90 % 0.0 in 197.0 W/m2 CLR
08:50 6.1 °F 4.4 °F 1015.5 in Calm     89 % 0.0 in 216.0 W/m2 CLR
08:55 6.7 °F 4.7 °F 1015.5 in Calm     87 % 0.0 in 239.0 W/m2 CLR
09:00 6.7 °F 4.3 °F 1015.5 in Calm     85 % 0.0 in 258.0 W/m2 CLR
09:05 7.2 °F 4.9 °F 1015.5 in Calm     85 % 0.0 in 267.0 W/m2 CLR
09:10 7.8 °F 5.1 °F 1015.5 in Calm     83 % 0.0 in 299.0 W/m2 CLR
09:15 8.3 °F 5.1 °F 1015.5 in Calm     80 % 0.0 in 287.0 W/m2 CLR
09:20 8.9 °F 5.4 °F 1015.5 in Calm     79 % 0.0 in 339.0 W/m2 CLR
09:25 10.6 °F 6.9 °F 1015.5 in Calm     78 % 0.0 in 316.0 W/m2 CLR
09:30 11.1 °F 7.2 °F 1015.8 in ENE 1.9 mph   77 % 0.0 in 327.0 W/m2 CLR
09:35 11.7 °F 7.8 °F 1015.5 in NE 1.9 mph   77 % 0.0 in 336.0 W/m2 CLR
09:40 12.2 °F 8.3 °F 1015.5 in Calm     77 % 0.0 in 381.0 W/m2 CLR
09:46 12.8 °F 8.7 °F 1015.5 in Calm     76 % 0.0 in 366.0 W/m2 CLR
09:51 13.3 °F 8.8 °F 1015.5 in Calm     74 % 0.0 in 345.0 W/m2 CLR
09:56 13.3 °F 8.6 °F 1015.5 in Calm     73 % 0.0 in 388.0 W/m2 CLR
10:01 13.9 °F 9.3 °F 1015.5 in Calm     74 % 0.0 in 427.0 W/m2 CLR
10:06 13.9 °F 9.1 °F 1015.5 in Calm     73 % 0.0 in 473.0 W/m2 CLR
10:11 14.4 °F 9.4 °F 1015.5 in Calm     72 % 0.0 in 499.0 W/m2 CLR
10:16 14.4 °F 9.1 °F 1015.5 in Calm     70 % 0.0 in 508.0 W/m2 CLR
10:21 15.0 °F 9.1 °F 1015.5 in Calm     68 % 0.0 in 526.0 W/m2 CLR
10:26 15.0 °F 9.1 °F 1015.5 in Calm     68 % 0.0 in 510.0 W/m2 CLR
10:31 15.6 °F 9.2 °F 1015.1 in Calm     66 % 0.0 in 543.0 W/m2 CLR
10:36 16.1 °F 9.5 °F 1015.1 in Calm     65 % 0.0 in 443.0 W/m2 CLR
10:41 16.1 °F 9.3 °F 1015.1 in Calm     64 % 0.0 in 564.0 W/m2 CLR
10:46 16.7 °F 9.6 °F 1015.1 in NNE 1.9 mph   63 % 0.0 in 476.0 W/m2 CLR
10:51 16.7 °F 10.1 °F 1015.1 in Calm     65 % 0.0 in 504.0 W/m2 CLR
10:56 17.2 °F 10.1 °F 1015.1 in East 3.7 mph 3.7 mph 63 % 0.0 in 492.0 W/m2 CLR
11:01 17.2 °F 9.9 °F 1015.1 in ENE 3.7 mph 3.7 mph 62 % 0.0 in 373.0 W/m2 CLR
11:06 17.2 °F 9.9 °F 1014.8 in ENE 5.6 mph 5.6 mph 62 % 0.0 in 475.0 W/m2 CLR
11:11 17.8 °F 10.6 °F 1014.8 in ENE 7.4 mph 7.4 mph 63 % 0.0 in 311.0 W/m2 CLR
11:16 16.7 °F 9.6 °F 1014.8 in ENE 5.6 mph 5.6 mph 63 % 0.0 in 403.0 W/m2 CLR
11:21 16.7 °F 9.8 °F 1014.8 in ENE 7.4 mph 7.4 mph 64 % 0.0 in 510.0 W/m2 CLR
11:26 17.2 °F 10.3 °F 1014.8 in ENE 6.4 mph 6.4 mph 64 % 0.0 in 615.0 W/m2 CLR
11:31 17.2 °F 10.3 °F 1014.8 in ENE 8.0 mph 8.0 mph 64 % 0.0 in 274.0 W/m2 CLR
11:36 16.7 °F 10.1 °F 1014.8 in ENE 7.4 mph 7.4 mph 65 % 0.0 in 301.0 W/m2 CLR
11:41 17.2 °F 10.6 °F 1014.8 in ENE 5.6 mph 5.6 mph 65 % 0.0 in 288.0 W/m2 CLR
11:46 17.8 °F 11.3 °F 1014.8 in ENE 9.7 mph 9.7 mph 66 % 0.0 in 749.0 W/m2 CLR
11:51 18.3 °F 11.4 °F 1014.8 in ENE 13.0 mph 13.0 mph 64 % 0.0 in 633.0 W/m2 CLR
11:56 18.3 °F 11.4 °F 1014.8 in NE 5.6 mph 5.6 mph 64 % 0.0 in 670.0 W/m2 CLR
12:01 18.9 °F 11.4 °F 1014.4 in ENE 8.0 mph 8.0 mph 62 % 0.0 in 729.0 W/m2 CLR
12:06 19.4 °F 11.5 °F 1014.4 in ESE 5.6 mph 5.6 mph 60 % 0.0 in 715.0 W/m2 CLR
12:11 20.0 °F 11.7 °F 1014.4 in ENE 5.6 mph 5.6 mph 59 % 0.0 in 696.0 W/m2 CLR
12:16 20.0 °F 11.5 °F 1014.4 in NE 14.8 mph 14.8 mph 58 % 0.0 in 800.0 W/m2 CLR
12:21 20.0 °F 11.5 °F 1014.1 in NE 9.3 mph 9.3 mph 58 % 0.0 in 772.0 W/m2 CLR
12:26 19.4 °F 11.2 °F 1014.1 in ENE 16.1 mph 16.1 mph 59 % 0.0 in 796.0 W/m2 CLR
12:31 20.6 °F 11.4 °F 1014.1 in East 11.1 mph 11.1 mph 56 % 0.0 in 835.0 W/m2 CLR
12:36 21.1 °F 12.0 °F 1014.1 in East 5.6 mph 5.6 mph 56 % 0.0 in 761.0 W/m2 CLR
12:41 20.6 °F 11.2 °F 1013.8 in Calm     55 % 0.0 in 578.0 W/m2 CLR
12:46 20.0 °F 10.9 °F 1013.8 in East 13.0 mph 13.0 mph 56 % 0.0 in 373.0 W/m2 CLR
12:51 20.0 °F 10.7 °F 1013.8 in ENE 12.9 mph 12.9 mph 55 % 0.0 in 761.0 W/m2 CLR
12:56 20.6 °F 11.2 °F 1013.4 in East 13.0 mph 13.0 mph 55 % 0.0 in 649.0 W/m2 CLR
13:01 20.6 °F 10.9 °F 1013.4 in East 6.4 mph 6.4 mph 54 % 0.0 in 559.0 W/m2 CLR
13:06 20.6 °F 10.7 °F 1013.4 in ENE 14.8 mph 14.8 mph 53 % 0.0 in 752.0 W/m2 CLR
13:11 20.6 °F 10.1 °F 1013.4 in East 22.5 mph 22.5 mph 51 % 0.0 in 621.0 W/m2 CLR
13:16 20.0 °F 10.1 °F 1013.1 in SE 18.5 mph 18.5 mph 53 % 0.0 in 452.0 W/m2 CLR
13:21 20.0 °F 9.6 °F 1013.4 in SSE 9.3 mph 9.3 mph 51 % 0.0 in 318.0 W/m2 CLR
13:31 20.0 °F 9.8 °F 1013.1 in ESE 8.0 mph 8.0 mph 52 % 0.0 in 308.0 W/m2 CLR
13:36 20.0 °F 10.1 °F 1012.8 in SE 8.0 mph 8.0 mph 53 % 0.0 in 308.0 W/m2 CLR
13:42 20.0 °F 10.1 °F 1012.8 in ENE 27.8 mph 27.8 mph 53 % 0.0 in 295.0 W/m2 CLR
13:47 20.6 °F 10.7 °F 1012.8 in ESE 18.5 mph 18.5 mph 53 % 0.0 in 900.0 W/m2 CLR
13:52 21.1 °F 10.6 °F 1012.8 in SE 18.5 mph 18.5 mph 51 % 0.0 in 847.0 W/m2 CLR
13:57 21.1 °F 10.3 °F 1012.4 in East 24.1 mph 24.1 mph 50 % 0.0 in 865.0 W/m2 CLR
14:02 21.1 °F 10.6 °F 1012.4 in East 18.5 mph 18.5 mph 51 % 0.0 in 427.0 W/m2 CLR
14:07 21.1 °F 10.3 °F 1012.4 in SSE 14.8 mph 14.8 mph 50 % 0.0 in 350.0 W/m2 CLR
14:12 20.6 °F 9.8 °F 1012.4 in SE 14.8 mph 14.8 mph 50 % 0.0 in 369.0 W/m2 CLR
14:17 20.0 °F 8.9 °F 1012.4 in ESE 22.2 mph 22.2 mph 49 % 0.0 in 381.0 W/m2 CLR
14:22 20.6 °F 9.8 °F 1012.4 in East 18.5 mph 18.5 mph 50 % 0.0 in 387.0 W/m2 CLR
14:27 21.1 °F 10.3 °F 1012.1 in ENE 14.8 mph 14.8 mph 50 % 0.0 in 626.0 W/m2 CLR
14:32 21.1 °F 10.6 °F 1012.1 in East 5.6 mph 5.6 mph 51 % 0.0 in 381.0 W/m2 CLR
14:37 21.1 °F 10.0 °F 1012.1 in SE 13.0 mph 13.0 mph 49 % 0.0 in 501.0 W/m2 CLR
14:42 21.1 °F 10.3 °F 1012.1 in SE 13.0 mph 13.0 mph 50 % 0.0 in 499.0 W/m2 CLR
14:47 21.1 °F 10.6 °F 1012.1 in ESE 5.6 mph 5.6 mph 51 % 0.0 in 550.0 W/m2 CLR
14:52 21.1 °F 10.3 °F 1012.1 in SE 14.8 mph 14.8 mph 50 % 0.0 in 842.0 W/m2 CLR
14:57 21.1 °F 10.0 °F 1011.7 in SE 13.0 mph 13.0 mph 49 % 0.0 in 374.0 W/m2 CLR
15:02 21.1 °F 10.0 °F 1011.7 in SE 9.3 mph 9.3 mph 49 % 0.0 in 642.0 W/m2 CLR
15:07 21.1 °F 10.3 °F 1011.7 in SE 8.0 mph 8.0 mph 50 % 0.0 in 457.0 W/m2 CLR
15:12 20.6 °F 9.8 °F 1011.4 in SE 18.5 mph 18.5 mph 50 % 0.0 in 506.0 W/m2 CLR
15:17 21.1 °F 10.3 °F 1011.4 in SE 9.3 mph 9.3 mph 50 % 0.0 in 587.0 W/m2 CLR
15:22 21.1 °F 10.6 °F 1011.4 in ENE 7.4 mph 7.4 mph 51 % 0.0 in 559.0 W/m2 CLR
15:27 21.7 °F 11.1 °F 1011.4 in East 14.8 mph 14.8 mph 51 % 0.0 in 636.0 W/m2 CLR
15:32 21.7 °F 10.5 °F 1011.4 in ENE 14.5 mph 14.5 mph 49 % 0.0 in 603.0 W/m2 CLR
15:37 21.1 °F 10.3 °F 1011.1 in ENE 16.7 mph 16.7 mph 50 % 0.0 in 571.0 W/m2 CLR
15:42 21.7 °F 10.8 °F 1011.1 in ESE 24.1 mph 24.1 mph 50 % 0.0 in 557.0 W/m2 CLR
15:47 21.1 °F 10.3 °F 1010.7 in ENE 14.8 mph 14.8 mph 50 % 0.0 in 517.0 W/m2 CLR
15:52 21.1 °F 10.6 °F 1010.7 in East 18.5 mph 18.5 mph 51 % 0.0 in 533.0 W/m2 CLR
15:57 21.1 °F 10.3 °F 1010.7 in SE 24.1 mph 24.1 mph 50 % 0.0 in 527.0 W/m2 CLR
16:02 21.1 °F 10.6 °F 1010.7 in East 18.5 mph 18.5 mph 51 % 0.0 in 135.0 W/m2 CLR
16:07 20.6 °F 10.3 °F 1010.7 in East 3.7 mph 3.7 mph 52 % 0.0 in 162.0 W/m2 CLR
16:12 20.0 °F 9.8 °F 1010.7 in East 25.9 mph 25.9 mph 52 % 0.0 in 186.0 W/m2 CLR
16:17 20.0 °F 10.1 °F 1010.7 in ESE 20.4 mph 20.4 mph 53 % 0.0 in 186.0 W/m2 CLR
16:22 20.0 °F 10.4 °F 1010.7 in ESE 16.7 mph 16.7 mph 54 % 0.0 in 169.0 W/m2 CLR
16:27 19.4 °F 9.9 °F 1010.7 in SSE 19.3 mph 19.3 mph 54 % 0.0 in 178.0 W/m2 CLR
16:32 19.4 °F 10.2 °F 1010.7 in SE 13.0 mph 13.0 mph 55 % 0.0 in 193.0 W/m2 CLR
16:37 19.4 °F 10.2 °F 1010.4 in ESE 7.4 mph 7.4 mph 55 % 0.0 in 214.0 W/m2 CLR
16:42 19.4 °F 10.2 °F 1010.4 in East 14.8 mph 14.8 mph 55 % 0.0 in 207.0 W/m2 CLR
16:47 19.4 °F 10.2 °F 1010.4 in SE 5.6 mph 5.6 mph 55 % 0.0 in 167.0 W/m2 CLR
16:52 19.4 °F 10.2 °F 1010.4 in SE 13.0 mph 13.0 mph 55 % 0.0 in 144.0 W/m2 CLR
16:57 19.4 °F 10.2 °F 1010.4 in SE 7.4 mph 7.4 mph 55 % 0.0 in 128.0 W/m2 CLR
17:02 18.9 °F 9.9 °F 1010.4 in SE 5.6 mph 5.6 mph 56 % 0.0 in 114.0 W/m2 CLR
17:07 18.9 °F 10.2 °F 1010.4 in SE 9.7 mph 9.7 mph 57 % 0.0 in 114.0 W/m2 CLR
17:12 18.9 °F 10.2 °F 1010.4 in SE 5.6 mph 5.6 mph 57 % 0.0 in 111.0 W/m2 CLR
17:17 18.9 °F 10.2 °F 1010.4 in ESE 5.6 mph 5.6 mph 57 % 0.0 in 104.0 W/m2 CLR
17:22 18.9 °F 10.4 °F 1010.0 in ESE 3.2 mph 3.2 mph 58 % 0.0 in 98.0 W/m2 CLR
17:27 18.3 °F 10.2 °F 1010.0 in Calm     59 % 0.0 in 91.0 W/m2 CLR
17:32 18.3 °F 10.2 °F 1010.0 in Calm     59 % 0.0 in 93.0 W/m2 CLR
17:37 18.3 °F 10.2 °F 1010.0 in East 4.8 mph 4.8 mph 59 % 0.0 in 142.0 W/m2 CLR
17:42 18.3 °F 10.2 °F 1010.0 in Calm     59 % 0.0 in 72.0 W/m2 CLR
17:47 17.8 °F 9.7 °F 1010.0 in Calm   0.2 mph 59 % 0.0 in 167.0 W/m2 CLR
17:52 18.3 °F 10.4 °F 1010.0 in Calm     60 % 0.0 in 185.0 W/m2 CLR
17:57 18.3 °F 10.2 °F 1010.0 in Calm     59 % 0.0 in 178.0 W/m2 CLR
18:02 18.3 °F 10.2 °F 1010.0 in East 1.6 mph 1.6 mph 59 % 0.0 in 169.0 W/m2 CLR
18:07 18.3 °F 10.2 °F 1010.0 in Calm     59 % 0.0 in 118.0 W/m2 CLR
18:12 18.3 °F 10.4 °F 1010.0 in East 3.7 mph 3.7 mph 60 % 0.0 in 105.0 W/m2 CLR
18:17 17.8 °F 9.9 °F 1010.0 in East 3.7 mph 3.7 mph 60 % 0.0 in 90.0 W/m2 CLR
18:22 17.8 °F 9.9 °F 1010.0 in Calm     60 % 0.0 in 67.0 W/m2 FEW
18:27 17.8 °F 10.2 °F 1010.0 in Calm     61 % 0.0 in 42.0 W/m2 BKN
18:32 17.8 °F 10.4 °F 1010.0 in Calm     62 % 0.0 in 32.0 W/m2 BKN
18:37 17.2 °F 10.1 °F 1010.0 in Calm   0.2 mph 63 % 0.0 in 21.0 W/m2 BKN
18:42 17.2 °F 10.1 °F 1010.0 in Calm     63 % 0.0 in 11.0 W/m2 BKN
18:47 16.7 °F 9.8 °F 1010.4 in Calm     64 % 0.0 in 5.0 W/m2 OVC
18:52 16.7 °F 10.1 °F 1010.4 in Calm     65 % 0.0 in 5.0 W/m2 OVC
18:57 16.1 °F 9.5 °F 1010.4 in Calm     65 % 0.0 in 0.0 W/m2 OVC
19:02 16.1 °F 9.5 °F 1010.4 in Calm     65 % 0.0 in 0.0 W/m2 CLR
19:07 15.6 °F 9.2 °F 1010.4 in Calm     66 % 0.0 in 0.0 W/m2 CLR
19:12 15.6 °F 9.2 °F 1010.4 in Calm     66 % 0.0 in 0.0 W/m2 CLR
19:17 15.0 °F 8.9 °F 1010.7 in Calm     67 % 0.0 in 0.0 W/m2 CLR
19:22 15.0 °F 8.9 °F 1010.7 in Calm     67 % 0.0 in 0.0 W/m2 CLR
19:28 15.0 °F 8.9 °F 1010.7 in Calm     67 % 0.0 in 0.0 W/m2 CLR
19:33 15.0 °F 8.9 °F 1010.7 in Calm     67 % 0.0 in 0.0 W/m2 CLR
19:38 15.0 °F 8.9 °F 1010.7 in West 5.6 mph 5.6 mph 67 % 0.0 in 0.0 W/m2 CLR
19:43 15.0 °F 9.1 °F 1011.1 in WNW 3.7 mph 3.7 mph 68 % 0.0 in 0.0 W/m2 CLR
19:48 15.0 °F 9.1 °F 1011.1 in Calm     68 % 0.0 in 0.0 W/m2 CLR
19:53 15.6 °F 9.7 °F 1011.1 in Calm     68 % 0.0 in 0.0 W/m2 CLR
19:58 15.6 °F 10.1 °F 1011.4 in Calm     70 % 0.0 in 0.0 W/m2 CLR
20:03 15.6 °F 10.3 °F 1011.4 in West 6.4 mph 6.4 mph 71 % 0.0 in 0.0 W/m2 CLR
20:08 15.6 °F 10.3 °F 1011.4 in West 3.7 mph 3.7 mph 71 % 0.0 in 0.0 W/m2 CLR
20:13 15.0 °F 9.8 °F 1011.4 in West 3.7 mph   71 % 0.0 in 0.0 W/m2 CLR
20:18 15.0 °F 9.6 °F 1011.4 in Calm     70 % 0.0 in 0.0 W/m2 CLR
20:23 15.0 °F 9.6 °F 1011.4 in Calm     70 % 0.0 in 0.0 W/m2 CLR
20:28 15.0 °F 9.6 °F 1011.1 in Calm     70 % 0.0 in 0.0 W/m2 CLR
20:33 14.4 °F 9.1 °F 1011.1 in West 1.9 mph   70 % 0.0 in 0.0 W/m2 CLR
20:38 15.0 °F 9.3 °F 1011.1 in Calm     69 % 0.0 in 0.0 W/m2 CLR
20:43 14.4 °F 8.8 °F 1011.4 in WNW 7.4 mph 7.4 mph 69 % 0.0 in 0.0 W/m2 CLR
20:48 15.0 °F 9.3 °F 1011.4 in West 5.6 mph 5.6 mph 69 % 0.0 in 0.0 W/m2 CLR
20:53 15.0 °F 9.6 °F 1011.1 in WSW 5.6 mph 5.6 mph 70 % 0.0 in 0.0 W/m2 CLR
20:58 15.6 °F 10.3 °F 1011.1 in WNW 8.0 mph 8.0 mph 71 % 0.0 in 0.0 W/m2 CLR
21:03 15.6 °F 10.3 °F 1011.1 in West 5.6 mph 5.6 mph 71 % 0.0 in 0.0 W/m2 CLR
21:08 15.6 °F 10.5 °F 1011.1 in Calm     72 % 0.0 in 0.0 W/m2 CLR
21:13 15.0 °F 10.0 °F 1011.1 in Calm     72 % 0.0 in 0.0 W/m2 CLR
21:18 15.0 °F 10.0 °F 1011.1 in Calm     72 % 0.0 in 0.0 W/m2 CLR
21:23 15.0 °F 9.8 °F 1011.1 in Calm     71 % 0.0 in 0.0 W/m2 CLR
21:28 15.0 °F 9.8 °F 1011.1 in Calm     71 % 0.0 in 0.0 W/m2 CLR
21:33 15.0 °F 9.8 °F 1011.1 in West 8.0 mph 8.0 mph 71 % 0.0 in 0.0 W/m2 CLR
21:38 15.0 °F 9.8 °F 1011.1 in West 7.4 mph 7.4 mph 71 % 0.0 in 0.0 W/m2 CLR
21:43 15.0 °F 9.8 °F 1011.1 in West 5.6 mph   71 % 0.0 in 0.0 W/m2 CLR
21:48 15.0 °F 9.8 °F 1011.1 in Calm     71 % 0.0 in 0.0 W/m2 CLR
21:53 14.4 °F 9.2 °F 1011.1 in Calm     71 % 0.0 in 0.0 W/m2 CLR
21:58 14.4 °F 9.4 °F 1011.1 in Calm     72 % 0.0 in 0.0 W/m2 CLR
22:03 14.4 °F 9.4 °F 1011.1 in Calm     72 % 0.0 in 0.0 W/m2 CLR
22:08 13.9 °F 9.1 °F 1011.1 in Calm     73 % 0.0 in 0.0 W/m2 CLR
22:13 13.9 °F 9.6 °F 1011.4 in Calm     75 % 0.0 in 0.0 W/m2 CLR
22:18 13.3 °F 9.2 °F 1011.4 in Calm     76 % 0.0 in 0.0 W/m2 CLR
22:23 13.3 °F 9.4 °F 1011.4 in Calm     77 % 0.0 in 0.0 W/m2 CLR
22:28 13.3 °F 9.4 °F 1011.4 in Calm     77 % 0.0 in 0.0 W/m2 CLR
22:33 13.3 °F 9.6 °F 1011.4 in Calm     78 % 0.0 in 0.0 W/m2 CLR
22:38 13.3 °F 9.6 °F 1011.4 in Calm     78 % 0.3 in 0.0 W/m2 RA
22:43 12.8 °F 9.4 °F 1011.4 in Calm     80 % 0.3 in 0.0 W/m2 CLR
22:44 12.8 °F 9.4 °F 1011.4 in Calm     80 % 0.3 in 0.0 W/m2 CLR
22:49 12.8 °F 9.4 °F 1011.4 in Calm     80 % 0.3 in 0.0 W/m2 CLR
22:54 12.8 °F 9.8 °F 1011.1 in Calm     82 % 0.3 in 0.0 W/m2 CLR
22:59 12.8 °F 9.9 °F 1011.4 in Calm     83 % 0.3 in 0.0 W/m2 CLR
23:04 12.8 °F 10.2 °F 1011.4 in Calm     84 % 0.3 in 0.0 W/m2 CLR
23:09 12.2 °F 9.6 °F 1011.1 in Calm     84 % 0.3 in 0.0 W/m2 CLR
23:14 12.2 °F 9.8 °F 1011.1 in Calm     85 % 0.3 in 0.0 W/m2 CLR
23:19 12.2 °F 9.9 °F 1011.1 in Calm     86 % 0.3 in 0.0 W/m2 CLR
23:24 12.2 °F 9.9 °F 1011.1 in Calm     86 % 0.3 in 0.0 W/m2 CLR
23:29 12.2 °F 10.1 °F 1011.1 in Calm     87 % 0.3 in 0.0 W/m2 CLR
23:34 11.7 °F 9.6 °F 1010.7 in Calm     87 % 0.0 in 0.0 W/m2 CLR
23:39 11.7 °F 9.6 °F 1010.7 in Calm     87 % 0.0 in 0.0 W/m2 CLR
23:44 11.7 °F 9.6 °F 1010.7 in Calm     87 % 0.0 in 0.0 W/m2 CLR
23:49 11.1 °F 9.1 °F 1010.7 in Calm     87 % 0.0 in 0.0 W/m2 CLR
23:54 11.1 °F 8.8 °F 1010.7 in Calm     86 % 0.0 in 0.0 W/m2 CLR
23:59 11.7 °F 9.4 °F 1010.7 in Calm     86 % 0.0 in 0.0 W/m2 CLR
Lo Temps de Massalio
Compliments of Weather Underground - 1.25 mb